sensor_id;sensor_type;location;lat;lon;timestamp;P1;durP1;ratioP1;P2;durP2;ratioP2
46551;SDS011;32278;51.810;4.712;2024-01-06T00:01:03;28.20;;;19.90;;
46551;SDS011;32278;51.810;4.712;2024-01-06T00:03:29;27.92;;;19.58;;
46551;SDS011;32278;51.810;4.712;2024-01-06T00:05:56;26.85;;;19.42;;
46551;SDS011;32278;51.810;4.712;2024-01-06T00:08:24;29.52;;;20.83;;
46551;SDS011;32278;51.810;4.712;2024-01-06T00:10:50;24.50;;;18.15;;
46551;SDS011;32278;51.810;4.712;2024-01-06T00:13:16;26.02;;;18.98;;
46551;SDS011;32278;51.810;4.712;2024-01-06T00:15:42;24.83;;;17.55;;
46551;SDS011;32278;51.810;4.712;2024-01-06T00:18:08;26.13;;;18.90;;
46551;SDS011;32278;51.810;4.712;2024-01-06T00:20:34;25.30;;;17.38;;
46551;SDS011;32278;51.810;4.712;2024-01-06T00:23:00;24.23;;;17.38;;
46551;SDS011;32278;51.810;4.712;2024-01-06T00:25:26;25.33;;;17.95;;
46551;SDS011;32278;51.810;4.712;2024-01-06T00:27:52;23.88;;;16.98;;
46551;SDS011;32278;51.810;4.712;2024-01-06T00:30:18;27.10;;;17.52;;
46551;SDS011;32278;51.810;4.712;2024-01-06T00:32:44;25.88;;;17.25;;
46551;SDS011;32278;51.810;4.712;2024-01-06T00:35:10;27.30;;;17.55;;
46551;SDS011;32278;51.810;4.712;2024-01-06T00:37:36;25.02;;;17.02;;
46551;SDS011;32278;51.810;4.712;2024-01-06T00:40:02;20.52;;;16.92;;
46551;SDS011;32278;51.810;4.712;2024-01-06T00:42:29;25.27;;;17.38;;
46551;SDS011;32278;51.810;4.712;2024-01-06T00:44:55;21.98;;;16.52;;
46551;SDS011;32278;51.810;4.712;2024-01-06T00:47:21;22.70;;;15.13;;
46551;SDS011;32278;51.810;4.712;2024-01-06T00:49:49;23.52;;;15.18;;
46551;SDS011;32278;51.810;4.712;2024-01-06T00:52:15;19.55;;;14.95;;
46551;SDS011;32278;51.810;4.712;2024-01-06T00:54:41;19.27;;;15.00;;
46551;SDS011;32278;51.810;4.712;2024-01-06T00:57:07;20.50;;;15.48;;
46551;SDS011;32278;51.810;4.712;2024-01-06T00:59:33;19.30;;;14.52;;
46551;SDS011;32278;51.810;4.712;2024-01-06T01:01:59;17.15;;;13.60;;
46551;SDS011;32278;51.810;4.712;2024-01-06T01:04:25;18.48;;;13.60;;
46551;SDS011;32278;51.810;4.712;2024-01-06T01:06:51;17.13;;;14.13;;
46551;SDS011;32278;51.810;4.712;2024-01-06T01:09:17;17.85;;;13.13;;
46551;SDS011;32278;51.810;4.712;2024-01-06T01:11:43;19.58;;;12.88;;
46551;SDS011;32278;51.810;4.712;2024-01-06T01:14:09;13.65;;;10.35;;
46551;SDS011;32278;51.810;4.712;2024-01-06T01:16:35;15.70;;;10.80;;
46551;SDS011;32278;51.810;4.712;2024-01-06T01:19:01;12.90;;;9.18;;
46551;SDS011;32278;51.810;4.712;2024-01-06T01:21:27;9.65;;;8.10;;
46551;SDS011;32278;51.810;4.712;2024-01-06T01:23:53;14.65;;;9.32;;
46551;SDS011;32278;51.810;4.712;2024-01-06T01:26:19;11.60;;;9.85;;
46551;SDS011;32278;51.810;4.712;2024-01-06T01:28:45;18.70;;;10.95;;
46551;SDS011;32278;51.810;4.712;2024-01-06T01:31:12;12.73;;;9.63;;
46551;SDS011;32278;51.810;4.712;2024-01-06T01:33:39;13.55;;;9.60;;
46551;SDS011;32278;51.810;4.712;2024-01-06T01:36:05;10.35;;;8.95;;
46551;SDS011;32278;51.810;4.712;2024-01-06T01:38:31;13.30;;;8.50;;
46551;SDS011;32278;51.810;4.712;2024-01-06T01:40:57;11.65;;;9.00;;
46551;SDS011;32278;51.810;4.712;2024-01-06T01:43:24;15.05;;;8.95;;
46551;SDS011;32278;51.810;4.712;2024-01-06T01:45:50;12.85;;;9.27;;
46551;SDS011;32278;51.810;4.712;2024-01-06T01:48:18;13.45;;;9.30;;
46551;SDS011;32278;51.810;4.712;2024-01-06T01:50:44;13.30;;;7.45;;
46551;SDS011;32278;51.810;4.712;2024-01-06T01:53:11;9.07;;;7.85;;
46551;SDS011;32278;51.810;4.712;2024-01-06T01:55:38;8.75;;;6.40;;
46551;SDS011;32278;51.810;4.712;2024-01-06T01:58:05;9.77;;;6.97;;
46551;SDS011;32278;51.810;4.712;2024-01-06T02:00:31;8.00;;;6.30;;
46551;SDS011;32278;51.810;4.712;2024-01-06T02:02:58;8.77;;;6.00;;
46551;SDS011;32278;51.810;4.712;2024-01-06T02:05:25;10.70;;;6.03;;
46551;SDS011;32278;51.810;4.712;2024-01-06T02:07:51;7.60;;;6.28;;
46551;SDS011;32278;51.810;4.712;2024-01-06T02:10:17;7.20;;;6.28;;
46551;SDS011;32278;51.810;4.712;2024-01-06T02:12:43;8.35;;;6.82;;
46551;SDS011;32278;51.810;4.712;2024-01-06T02:15:09;7.15;;;6.13;;
46551;SDS011;32278;51.810;4.712;2024-01-06T02:17:35;8.00;;;5.70;;
46551;SDS011;32278;51.810;4.712;2024-01-06T02:20:01;8.52;;;4.95;;
46551;SDS011;32278;51.810;4.712;2024-01-06T02:22:27;6.38;;;5.40;;
46551;SDS011;32278;51.810;4.712;2024-01-06T02:24:53;8.32;;;6.45;;
46551;SDS011;32278;51.810;4.712;2024-01-06T02:27:19;7.93;;;6.40;;
46551;SDS011;32278;51.810;4.712;2024-01-06T02:29:45;11.35;;;7.88;;
46551;SDS011;32278;51.810;4.712;2024-01-06T02:32:11;11.02;;;7.95;;
46551;SDS011;32278;51.810;4.712;2024-01-06T02:34:37;12.20;;;8.27;;
46551;SDS011;32278;51.810;4.712;2024-01-06T02:37:03;11.95;;;8.90;;
46551;SDS011;32278;51.810;4.712;2024-01-06T02:39:29;12.35;;;9.05;;
46551;SDS011;32278;51.810;4.712;2024-01-06T02:41:55;12.80;;;9.38;;
46551;SDS011;32278;51.810;4.712;2024-01-06T02:44:21;9.18;;;8.02;;
46551;SDS011;32278;51.810;4.712;2024-01-06T02:46:47;14.80;;;8.77;;
46551;SDS011;32278;51.810;4.712;2024-01-06T02:49:13;9.23;;;7.68;;
46551;SDS011;32278;51.810;4.712;2024-01-06T02:51:39;13.65;;;9.15;;
46551;SDS011;32278;51.810;4.712;2024-01-06T02:54:05;13.57;;;9.75;;
46551;SDS011;32278;51.810;4.712;2024-01-06T02:56:31;14.13;;;10.20;;
46551;SDS011;32278;51.810;4.712;2024-01-06T02:58:57;16.30;;;10.10;;
46551;SDS011;32278;51.810;4.712;2024-01-06T03:01:23;12.20;;;9.55;;
46551;SDS011;32278;51.810;4.712;2024-01-06T03:03:49;12.00;;;9.82;;
46551;SDS011;32278;51.810;4.712;2024-01-06T03:06:15;13.02;;;9.93;;
46551;SDS011;32278;51.810;4.712;2024-01-06T03:08:41;12.30;;;9.55;;
46551;SDS011;32278;51.810;4.712;2024-01-06T03:11:07;15.20;;;10.60;;
46551;SDS011;32278;51.810;4.712;2024-01-06T03:13:33;14.38;;;10.20;;
46551;SDS011;32278;51.810;4.712;2024-01-06T03:16:01;12.55;;;10.07;;
46551;SDS011;32278;51.810;4.712;2024-01-06T03:18:27;11.13;;;8.40;;
46551;SDS011;32278;51.810;4.712;2024-01-06T03:20:54;9.95;;;8.52;;
46551;SDS011;32278;51.810;4.712;2024-01-06T03:23:20;11.80;;;9.43;;
46551;SDS011;32278;51.810;4.712;2024-01-06T03:25:46;11.77;;;10.07;;
46551;SDS011;32278;51.810;4.712;2024-01-06T03:28:12;19.95;;;10.80;;
46551;SDS011;32278;51.810;4.712;2024-01-06T03:30:38;25.27;;;11.80;;
46551;SDS011;32278;51.810;4.712;2024-01-06T03:33:05;18.08;;;12.23;;
46551;SDS011;32278;51.810;4.712;2024-01-06T03:35:31;15.18;;;11.15;;
46551;SDS011;32278;51.810;4.712;2024-01-06T03:37:57;13.50;;;10.07;;
46551;SDS011;32278;51.810;4.712;2024-01-06T03:40:23;11.70;;;9.40;;
46551;SDS011;32278;51.810;4.712;2024-01-06T03:42:49;12.57;;;8.18;;
46551;SDS011;32278;51.810;4.712;2024-01-06T03:45:15;10.73;;;8.38;;
46551;SDS011;32278;51.810;4.712;2024-01-06T03:47:41;16.40;;;10.20;;
46551;SDS011;32278;51.810;4.712;2024-01-06T03:50:07;14.48;;;10.10;;
46551;SDS011;32278;51.810;4.712;2024-01-06T03:52:33;12.95;;;9.63;;
46551;SDS011;32278;51.810;4.712;2024-01-06T03:54:59;16.48;;;11.45;;
46551;SDS011;32278;51.810;4.712;2024-01-06T03:57:25;15.27;;;11.65;;
46551;SDS011;32278;51.810;4.712;2024-01-06T03:59:51;19.52;;;13.80;;
46551;SDS011;32278;51.810;4.712;2024-01-06T04:02:17;20.08;;;13.35;;
46551;SDS011;32278;51.810;4.712;2024-01-06T04:04:43;16.33;;;14.07;;
46551;SDS011;32278;51.810;4.712;2024-01-06T04:07:09;20.30;;;12.50;;
46551;SDS011;32278;51.810;4.712;2024-01-06T04:09:35;23.27;;;14.98;;
46551;SDS011;32278;51.810;4.712;2024-01-06T04:12:01;19.25;;;15.45;;
46551;SDS011;32278;51.810;4.712;2024-01-06T04:14:27;23.38;;;14.75;;
46551;SDS011;32278;51.810;4.712;2024-01-06T04:16:53;16.30;;;13.63;;
46551;SDS011;32278;51.810;4.712;2024-01-06T04:19:21;19.40;;;14.30;;
46551;SDS011;32278;51.810;4.712;2024-01-06T04:21:47;25.45;;;16.15;;
46551;SDS011;32278;51.810;4.712;2024-01-06T04:24:13;27.42;;;18.38;;
46551;SDS011;32278;51.810;4.712;2024-01-06T04:26:39;26.45;;;16.30;;
46551;SDS011;32278;51.810;4.712;2024-01-06T04:29:05;22.20;;;16.52;;
46551;SDS011;32278;51.810;4.712;2024-01-06T04:31:33;20.50;;;15.65;;
46551;SDS011;32278;51.810;4.712;2024-01-06T04:33:59;22.45;;;16.52;;
46551;SDS011;32278;51.810;4.712;2024-01-06T04:36:25;22.13;;;15.52;;
46551;SDS011;32278;51.810;4.712;2024-01-06T04:38:51;26.30;;;15.05;;
46551;SDS011;32278;51.810;4.712;2024-01-06T04:41:17;20.13;;;15.70;;
46551;SDS011;32278;51.810;4.712;2024-01-06T04:43:43;19.83;;;14.98;;
46551;SDS011;32278;51.810;4.712;2024-01-06T04:46:08;19.92;;;15.00;;
46551;SDS011;32278;51.810;4.712;2024-01-06T04:48:34;16.30;;;13.90;;
46551;SDS011;32278;51.810;4.712;2024-01-06T04:51:00;13.15;;;11.32;;
46551;SDS011;32278;51.810;4.712;2024-01-06T04:53:28;16.25;;;11.10;;
46551;SDS011;32278;51.810;4.712;2024-01-06T04:55:55;10.98;;;9.70;;
46551;SDS011;32278;51.810;4.712;2024-01-06T04:58:21;10.52;;;8.95;;
46551;SDS011;32278;51.810;4.712;2024-01-06T05:00:47;11.68;;;7.35;;
46551;SDS011;32278;51.810;4.712;2024-01-06T05:03:15;8.32;;;7.15;;
46551;SDS011;32278;51.810;4.712;2024-01-06T05:05:41;12.82;;;8.45;;
46551;SDS011;32278;51.810;4.712;2024-01-06T05:08:07;13.35;;;8.38;;
46551;SDS011;32278;51.810;4.712;2024-01-06T05:10:33;11.93;;;8.35;;
46551;SDS011;32278;51.810;4.712;2024-01-06T05:12:59;11.02;;;8.60;;
46551;SDS011;32278;51.810;4.712;2024-01-06T05:15:25;12.90;;;8.15;;
46551;SDS011;32278;51.810;4.712;2024-01-06T05:17:51;11.80;;;7.43;;
46551;SDS011;32278;51.810;4.712;2024-01-06T05:20:17;11.65;;;8.48;;
46551;SDS011;32278;51.810;4.712;2024-01-06T05:22:43;11.48;;;8.35;;
46551;SDS011;32278;51.810;4.712;2024-01-06T05:25:09;10.63;;;7.63;;
46551;SDS011;32278;51.810;4.712;2024-01-06T05:27:35;9.65;;;8.20;;
46551;SDS011;32278;51.810;4.712;2024-01-06T05:30:01;10.77;;;8.05;;
46551;SDS011;32278;51.810;4.712;2024-01-06T05:32:27;11.98;;;7.85;;
46551;SDS011;32278;51.810;4.712;2024-01-06T05:34:53;15.63;;;8.68;;
46551;SDS011;32278;51.810;4.712;2024-01-06T05:37:19;12.80;;;9.75;;
46551;SDS011;32278;51.810;4.712;2024-01-06T05:39:45;13.00;;;10.77;;
46551;SDS011;32278;51.810;4.712;2024-01-06T05:42:11;16.60;;;8.82;;
46551;SDS011;32278;51.810;4.712;2024-01-06T05:44:40;14.02;;;9.40;;
46551;SDS011;32278;51.810;4.712;2024-01-06T05:47:06;13.98;;;9.27;;
46551;SDS011;32278;51.810;4.712;2024-01-06T05:49:33;13.70;;;9.60;;
46551;SDS011;32278;51.810;4.712;2024-01-06T05:51:59;14.75;;;10.48;;
46551;SDS011;32278;51.810;4.712;2024-01-06T05:54:25;16.75;;;9.90;;
46551;SDS011;32278;51.810;4.712;2024-01-06T05:56:51;14.48;;;10.65;;
46551;SDS011;32278;51.810;4.712;2024-01-06T05:59:18;13.23;;;11.18;;
46551;SDS011;32278;51.810;4.712;2024-01-06T06:01:44;13.90;;;9.70;;
46551;SDS011;32278;51.810;4.712;2024-01-06T06:04:10;17.42;;;9.95;;
46551;SDS011;32278;51.810;4.712;2024-01-06T06:06:37;19.25;;;11.68;;
46551;SDS011;32278;51.810;4.712;2024-01-06T06:09:03;15.13;;;9.68;;
46551;SDS011;32278;51.810;4.712;2024-01-06T06:11:32;17.40;;;10.38;;
46551;SDS011;32278;51.810;4.712;2024-01-06T06:13:58;17.85;;;11.35;;
46551;SDS011;32278;51.810;4.712;2024-01-06T06:16:24;15.43;;;10.65;;
46551;SDS011;32278;51.810;4.712;2024-01-06T06:18:49;19.65;;;12.00;;
46551;SDS011;32278;51.810;4.712;2024-01-06T06:21:15;13.93;;;10.60;;
46551;SDS011;32278;51.810;4.712;2024-01-06T06:23:41;15.98;;;10.07;;
46551;SDS011;32278;51.810;4.712;2024-01-06T06:26:08;13.75;;;9.65;;
46551;SDS011;32278;51.810;4.712;2024-01-06T06:28:34;18.65;;;10.68;;
46551;SDS011;32278;51.810;4.712;2024-01-06T06:31:03;18.98;;;11.15;;
46551;SDS011;32278;51.810;4.712;2024-01-06T06:33:29;15.70;;;10.48;;
46551;SDS011;32278;51.810;4.712;2024-01-06T06:35:55;16.27;;;11.05;;
46551;SDS011;32278;51.810;4.712;2024-01-06T06:38:21;15.10;;;10.90;;
46551;SDS011;32278;51.810;4.712;2024-01-06T06:40:47;15.63;;;10.70;;
46551;SDS011;32278;51.810;4.712;2024-01-06T06:43:13;16.27;;;9.80;;
46551;SDS011;32278;51.810;4.712;2024-01-06T06:45:39;17.20;;;9.35;;
46551;SDS011;32278;51.810;4.712;2024-01-06T06:48:06;14.32;;;8.75;;
46551;SDS011;32278;51.810;4.712;2024-01-06T06:50:32;12.18;;;9.15;;
46551;SDS011;32278;51.810;4.712;2024-01-06T06:52:58;23.70;;;9.23;;
46551;SDS011;32278;51.810;4.712;2024-01-06T06:55:25;14.80;;;9.73;;
46551;SDS011;32278;51.810;4.712;2024-01-06T06:57:52;12.38;;;8.95;;
46551;SDS011;32278;51.810;4.712;2024-01-06T07:00:18;11.98;;;9.10;;
46551;SDS011;32278;51.810;4.712;2024-01-06T07:02:44;12.63;;;9.50;;
46551;SDS011;32278;51.810;4.712;2024-01-06T07:05:10;10.63;;;9.52;;
46551;SDS011;32278;51.810;4.712;2024-01-06T07:07:36;13.30;;;8.95;;
46551;SDS011;32278;51.810;4.712;2024-01-06T07:10:03;11.73;;;9.82;;
46551;SDS011;32278;51.810;4.712;2024-01-06T07:12:30;12.85;;;10.48;;
46551;SDS011;32278;51.810;4.712;2024-01-06T07:14:56;12.48;;;10.10;;
46551;SDS011;32278;51.810;4.712;2024-01-06T07:17:23;15.10;;;10.07;;
46551;SDS011;32278;51.810;4.712;2024-01-06T07:19:49;16.83;;;10.90;;
46551;SDS011;32278;51.810;4.712;2024-01-06T07:22:15;14.63;;;10.80;;
46551;SDS011;32278;51.810;4.712;2024-01-06T07:24:43;16.83;;;12.60;;
46551;SDS011;32278;51.810;4.712;2024-01-06T07:27:09;19.83;;;12.38;;
46551;SDS011;32278;51.810;4.712;2024-01-06T07:29:35;21.98;;;12.68;;
46551;SDS011;32278;51.810;4.712;2024-01-06T07:32:01;19.55;;;11.52;;
46551;SDS011;32278;51.810;4.712;2024-01-06T07:34:27;16.67;;;11.32;;
46551;SDS011;32278;51.810;4.712;2024-01-06T07:36:53;16.15;;;12.88;;
46551;SDS011;32278;51.810;4.712;2024-01-06T07:39:19;19.90;;;12.95;;
46551;SDS011;32278;51.810;4.712;2024-01-06T07:41:45;17.15;;;11.80;;
46551;SDS011;32278;51.810;4.712;2024-01-06T07:44:11;15.68;;;12.50;;
46551;SDS011;32278;51.810;4.712;2024-01-06T07:46:38;16.73;;;12.60;;
46551;SDS011;32278;51.810;4.712;2024-01-06T07:49:05;17.17;;;12.40;;
46551;SDS011;32278;51.810;4.712;2024-01-06T07:51:31;20.25;;;12.45;;
46551;SDS011;32278;51.810;4.712;2024-01-06T07:53:59;17.92;;;12.05;;
46551;SDS011;32278;51.810;4.712;2024-01-06T07:56:25;17.20;;;13.35;;
46551;SDS011;32278;51.810;4.712;2024-01-06T07:58:51;17.20;;;12.77;;
46551;SDS011;32278;51.810;4.712;2024-01-06T08:01:17;19.40;;;12.63;;
46551;SDS011;32278;51.810;4.712;2024-01-06T08:03:43;20.40;;;13.30;;
46551;SDS011;32278;51.810;4.712;2024-01-06T08:06:09;22.58;;;12.27;;
46551;SDS011;32278;51.810;4.712;2024-01-06T08:08:35;15.25;;;11.52;;
46551;SDS011;32278;51.810;4.712;2024-01-06T08:11:01;17.23;;;13.93;;
46551;SDS011;32278;51.810;4.712;2024-01-06T08:13:27;18.55;;;13.00;;
46551;SDS011;32278;51.810;4.712;2024-01-06T08:15:53;17.02;;;12.40;;
46551;SDS011;32278;51.810;4.712;2024-01-06T08:18:19;16.98;;;12.98;;
46551;SDS011;32278;51.810;4.712;2024-01-06T08:20:46;22.10;;;11.95;;
46551;SDS011;32278;51.810;4.712;2024-01-06T08:23:12;17.70;;;11.15;;
46551;SDS011;32278;51.810;4.712;2024-01-06T08:25:39;15.48;;;11.77;;
46551;SDS011;32278;51.810;4.712;2024-01-06T08:28:05;18.58;;;11.93;;
46551;SDS011;32278;51.810;4.712;2024-01-06T08:30:31;16.98;;;11.07;;
46551;SDS011;32278;51.810;4.712;2024-01-06T08:32:57;16.33;;;11.85;;
46551;SDS011;32278;51.810;4.712;2024-01-06T08:35:24;12.48;;;11.05;;
46551;SDS011;32278;51.810;4.712;2024-01-06T08:37:50;18.08;;;12.23;;
46551;SDS011;32278;51.810;4.712;2024-01-06T08:40:16;16.42;;;10.85;;
46551;SDS011;32278;51.810;4.712;2024-01-06T08:42:42;15.70;;;11.07;;
46551;SDS011;32278;51.810;4.712;2024-01-06T08:45:09;19.50;;;10.38;;
46551;SDS011;32278;51.810;4.712;2024-01-06T08:47:35;18.45;;;11.60;;
46551;SDS011;32278;51.810;4.712;2024-01-06T08:50:01;12.30;;;10.98;;
46551;SDS011;32278;51.810;4.712;2024-01-06T08:52:26;15.57;;;10.50;;
46551;SDS011;32278;51.810;4.712;2024-01-06T08:54:52;13.82;;;10.20;;
46551;SDS011;32278;51.810;4.712;2024-01-06T08:57:19;10.77;;;8.68;;
46551;SDS011;32278;51.810;4.712;2024-01-06T08:59:44;12.00;;;9.23;;
46551;SDS011;32278;51.810;4.712;2024-01-06T09:02:11;15.20;;;8.85;;
46551;SDS011;32278;51.810;4.712;2024-01-06T09:04:37;15.40;;;9.73;;
46551;SDS011;32278;51.810;4.712;2024-01-06T09:07:04;11.45;;;8.95;;
46551;SDS011;32278;51.810;4.712;2024-01-06T09:09:30;14.32;;;9.55;;
46551;SDS011;32278;51.810;4.712;2024-01-06T09:11:56;12.30;;;9.40;;
46551;SDS011;32278;51.810;4.712;2024-01-06T09:14:22;15.95;;;8.77;;
46551;SDS011;32278;51.810;4.712;2024-01-06T09:16:48;12.13;;;9.15;;
46551;SDS011;32278;51.810;4.712;2024-01-06T09:19:14;10.38;;;8.32;;
46551;SDS011;32278;51.810;4.712;2024-01-06T09:21:40;11.40;;;8.70;;
46551;SDS011;32278;51.810;4.712;2024-01-06T09:24:06;12.60;;;8.43;;
46551;SDS011;32278;51.810;4.712;2024-01-06T09:26:32;10.57;;;8.48;;
46551;SDS011;32278;51.810;4.712;2024-01-06T09:29:01;12.43;;;8.65;;
46551;SDS011;32278;51.810;4.712;2024-01-06T09:31:27;13.55;;;7.97;;
46551;SDS011;32278;51.810;4.712;2024-01-06T09:33:53;15.25;;;8.63;;
46551;SDS011;32278;51.810;4.712;2024-01-06T09:36:19;8.88;;;7.55;;
46551;SDS011;32278;51.810;4.712;2024-01-06T09:38:45;11.82;;;7.38;;
46551;SDS011;32278;51.810;4.712;2024-01-06T09:41:11;8.73;;;7.03;;
46551;SDS011;32278;51.810;4.712;2024-01-06T09:43:37;11.82;;;7.22;;
46551;SDS011;32278;51.810;4.712;2024-01-06T09:46:11;10.48;;;7.40;;
46551;SDS011;32278;51.810;4.712;2024-01-06T09:48:41;12.10;;;7.50;;
46551;SDS011;32278;51.810;4.712;2024-01-06T09:51:08;10.55;;;7.28;;
46551;SDS011;32278;51.810;4.712;2024-01-06T09:53:35;13.63;;;7.45;;
46551;SDS011;32278;51.810;4.712;2024-01-06T09:56:02;11.60;;;8.15;;
46551;SDS011;32278;51.810;4.712;2024-01-06T09:58:28;13.30;;;7.35;;
46551;SDS011;32278;51.810;4.712;2024-01-06T10:00:58;12.90;;;7.82;;
46551;SDS011;32278;51.810;4.712;2024-01-06T10:03:24;15.82;;;7.72;;
46551;SDS011;32278;51.810;4.712;2024-01-06T10:05:51;14.05;;;7.70;;
46551;SDS011;32278;51.810;4.712;2024-01-06T10:08:18;14.75;;;8.18;;
46551;SDS011;32278;51.810;4.712;2024-01-06T10:10:44;17.70;;;9.63;;
46551;SDS011;32278;51.810;4.712;2024-01-06T10:13:10;13.02;;;8.02;;
46551;SDS011;32278;51.810;4.712;2024-01-06T10:15:36;17.38;;;8.93;;
46551;SDS011;32278;51.810;4.712;2024-01-06T10:18:02;12.60;;;8.73;;
46551;SDS011;32278;51.810;4.712;2024-01-06T10:20:28;14.02;;;8.30;;
46551;SDS011;32278;51.810;4.712;2024-01-06T10:22:55;11.80;;;8.15;;
46551;SDS011;32278;51.810;4.712;2024-01-06T10:25:22;12.77;;;9.02;;
46551;SDS011;32278;51.810;4.712;2024-01-06T10:27:49;8.52;;;6.90;;
46551;SDS011;32278;51.810;4.712;2024-01-06T10:30:19;12.32;;;6.75;;
46551;SDS011;32278;51.810;4.712;2024-01-06T10:32:45;12.10;;;8.10;;
46551;SDS011;32278;51.810;4.712;2024-01-06T10:35:11;15.30;;;7.40;;
46551;SDS011;32278;51.810;4.712;2024-01-06T10:37:37;9.70;;;7.07;;
46551;SDS011;32278;51.810;4.712;2024-01-06T10:40:07;6.80;;;5.28;;
46551;SDS011;32278;51.810;4.712;2024-01-06T10:42:33;9.30;;;6.32;;
46551;SDS011;32278;51.810;4.712;2024-01-06T10:45:00;9.68;;;6.07;;
46551;SDS011;32278;51.810;4.712;2024-01-06T10:47:26;10.90;;;6.47;;
46551;SDS011;32278;51.810;4.712;2024-01-06T10:49:55;8.32;;;6.55;;
46551;SDS011;32278;51.810;4.712;2024-01-06T10:52:23;7.85;;;5.90;;
46551;SDS011;32278;51.810;4.712;2024-01-06T10:54:49;8.93;;;5.88;;
46551;SDS011;32278;51.810;4.712;2024-01-06T10:57:16;11.07;;;5.38;;
46551;SDS011;32278;51.810;4.712;2024-01-06T10:59:43;6.10;;;4.63;;
46551;SDS011;32278;51.810;4.712;2024-01-06T11:02:10;5.95;;;4.43;;
46551;SDS011;32278;51.810;4.712;2024-01-06T11:04:37;11.70;;;5.57;;
46551;SDS011;32278;51.810;4.712;2024-01-06T11:07:03;10.38;;;5.30;;
46551;SDS011;32278;51.810;4.712;2024-01-06T11:09:31;11.20;;;5.40;;
46551;SDS011;32278;51.810;4.712;2024-01-06T11:11:59;10.43;;;5.70;;
46551;SDS011;32278;51.810;4.712;2024-01-06T11:14:26;6.72;;;5.55;;
46551;SDS011;32278;51.810;4.712;2024-01-06T11:16:56;10.27;;;5.38;;
46551;SDS011;32278;51.810;4.712;2024-01-06T11:19:44;8.65;;;6.32;;
46551;SDS011;32278;51.810;4.712;2024-01-06T11:24:47;13.75;;;6.47;;
46551;SDS011;32278;51.810;4.712;2024-01-06T11:27:17;6.55;;;4.80;;
46551;SDS011;32278;51.810;4.712;2024-01-06T11:29:44;6.80;;;3.38;;
46551;SDS011;32278;51.810;4.712;2024-01-06T11:32:20;6.55;;;3.78;;
46551;SDS011;32278;51.810;4.712;2024-01-06T11:34:49;6.65;;;4.93;;
46551;SDS011;32278;51.810;4.712;2024-01-06T11:37:17;7.00;;;5.13;;
46551;SDS011;32278;51.810;4.712;2024-01-06T11:39:44;6.65;;;5.10;;
46551;SDS011;32278;51.810;4.712;2024-01-06T11:42:10;6.72;;;5.20;;
46551;SDS011;32278;51.810;4.712;2024-01-06T11:44:37;9.77;;;5.97;;
46551;SDS011;32278;51.810;4.712;2024-01-06T11:47:03;6.50;;;4.95;;
46551;SDS011;32278;51.810;4.712;2024-01-06T11:49:29;7.90;;;5.80;;
46551;SDS011;32278;51.810;4.712;2024-01-06T11:51:56;8.93;;;6.13;;
46551;SDS011;32278;51.810;4.712;2024-01-06T11:54:22;7.57;;;5.85;;
46551;SDS011;32278;51.810;4.712;2024-01-06T11:56:48;9.25;;;5.75;;
46551;SDS011;32278;51.810;4.712;2024-01-06T11:59:14;9.48;;;5.90;;
46551;SDS011;32278;51.810;4.712;2024-01-06T12:01:40;7.95;;;5.82;;
46551;SDS011;32278;51.810;4.712;2024-01-06T12:04:07;6.50;;;5.38;;
46551;SDS011;32278;51.810;4.712;2024-01-06T12:06:33;9.85;;;6.40;;
46551;SDS011;32278;51.810;4.712;2024-01-06T12:09:03;8.57;;;6.28;;
46551;SDS011;32278;51.810;4.712;2024-01-06T12:11:29;6.57;;;5.18;;
46551;SDS011;32278;51.810;4.712;2024-01-06T12:13:55;9.98;;;5.70;;
46551;SDS011;32278;51.810;4.712;2024-01-06T12:16:22;10.45;;;5.68;;
46551;SDS011;32278;51.810;4.712;2024-01-06T12:18:51;9.95;;;5.82;;
46551;SDS011;32278;51.810;4.712;2024-01-06T12:21:20;8.57;;;6.00;;
46551;SDS011;32278;51.810;4.712;2024-01-06T12:23:46;7.05;;;6.00;;
46551;SDS011;32278;51.810;4.712;2024-01-06T12:26:12;7.00;;;5.38;;
46551;SDS011;32278;51.810;4.712;2024-01-06T12:28:38;8.85;;;5.72;;
46551;SDS011;32278;51.810;4.712;2024-01-06T12:31:04;6.72;;;5.82;;
46551;SDS011;32278;51.810;4.712;2024-01-06T12:33:30;9.48;;;6.10;;
46551;SDS011;32278;51.810;4.712;2024-01-06T12:35:57;10.25;;;5.55;;
46551;SDS011;32278;51.810;4.712;2024-01-06T12:38:23;10.90;;;6.80;;
46551;SDS011;32278;51.810;4.712;2024-01-06T12:40:52;11.85;;;6.88;;
46551;SDS011;32278;51.810;4.712;2024-01-06T12:43:19;11.38;;;6.13;;
46551;SDS011;32278;51.810;4.712;2024-01-06T12:45:45;6.97;;;5.43;;
46551;SDS011;32278;51.810;4.712;2024-01-06T12:48:11;7.53;;;5.88;;
46551;SDS011;32278;51.810;4.712;2024-01-06T12:50:37;10.40;;;6.18;;
46551;SDS011;32278;51.810;4.712;2024-01-06T12:53:03;7.90;;;6.13;;
46551;SDS011;32278;51.810;4.712;2024-01-06T12:55:29;8.88;;;5.55;;
46551;SDS011;32278;51.810;4.712;2024-01-06T12:57:55;8.73;;;5.50;;
46551;SDS011;32278;51.810;4.712;2024-01-06T13:00:21;10.30;;;6.30;;
46551;SDS011;32278;51.810;4.712;2024-01-06T13:02:47;13.70;;;6.75;;
46551;SDS011;32278;51.810;4.712;2024-01-06T13:05:13;17.90;;;7.35;;
46551;SDS011;32278;51.810;4.712;2024-01-06T13:07:39;12.23;;;7.63;;
46551;SDS011;32278;51.810;4.712;2024-01-06T13:10:05;12.02;;;7.95;;
46551;SDS011;32278;51.810;4.712;2024-01-06T13:12:31;9.35;;;7.35;;
46551;SDS011;32278;51.810;4.712;2024-01-06T13:14:57;9.95;;;7.63;;
46551;SDS011;32278;51.810;4.712;2024-01-06T13:17:24;12.45;;;8.60;;
46551;SDS011;32278;51.810;4.712;2024-01-06T13:19:50;11.70;;;7.18;;
46551;SDS011;32278;51.810;4.712;2024-01-06T13:22:16;10.52;;;6.63;;
46551;SDS011;32278;51.810;4.712;2024-01-06T13:24:45;11.45;;;7.50;;
46551;SDS011;32278;51.810;4.712;2024-01-06T13:27:11;12.48;;;7.57;;
46551;SDS011;32278;51.810;4.712;2024-01-06T13:29:37;14.15;;;7.47;;
46551;SDS011;32278;51.810;4.712;2024-01-06T13:32:03;10.00;;;7.43;;
46551;SDS011;32278;51.810;4.712;2024-01-06T13:34:30;9.85;;;7.35;;
46551;SDS011;32278;51.810;4.712;2024-01-06T13:36:56;7.40;;;5.93;;
46551;SDS011;32278;51.810;4.712;2024-01-06T13:39:22;7.18;;;5.40;;
46551;SDS011;32278;51.810;4.712;2024-01-06T13:41:49;9.73;;;6.40;;
46551;SDS011;32278;51.810;4.712;2024-01-06T13:44:15;7.78;;;5.63;;
46551;SDS011;32278;51.810;4.712;2024-01-06T13:46:41;12.43;;;7.05;;
46551;SDS011;32278;51.810;4.712;2024-01-06T13:49:11;6.60;;;5.90;;
46551;SDS011;32278;51.810;4.712;2024-01-06T13:51:37;10.18;;;6.63;;
46551;SDS011;32278;51.810;4.712;2024-01-06T13:54:04;12.40;;;7.63;;
46551;SDS011;32278;51.810;4.712;2024-01-06T13:56:30;11.55;;;5.75;;
46551;SDS011;32278;51.810;4.712;2024-01-06T13:58:56;9.43;;;5.60;;
46551;SDS011;32278;51.810;4.712;2024-01-06T14:01:22;9.55;;;5.40;;
46551;SDS011;32278;51.810;4.712;2024-01-06T14:03:48;6.90;;;5.03;;
46551;SDS011;32278;51.810;4.712;2024-01-06T14:06:15;8.32;;;4.43;;
46551;SDS011;32278;51.810;4.712;2024-01-06T14:08:42;6.95;;;4.57;;
46551;SDS011;32278;51.810;4.712;2024-01-06T14:11:08;6.43;;;4.28;;
46551;SDS011;32278;51.810;4.712;2024-01-06T14:13:34;9.20;;;4.78;;
46551;SDS011;32278;51.810;4.712;2024-01-06T14:16:00;5.57;;;4.70;;
46551;SDS011;32278;51.810;4.712;2024-01-06T14:18:26;6.60;;;4.68;;
46551;SDS011;32278;51.810;4.712;2024-01-06T14:20:52;7.93;;;5.32;;
46551;SDS011;32278;51.810;4.712;2024-01-06T14:23:20;6.05;;;5.32;;
46551;SDS011;32278;51.810;4.712;2024-01-06T14:25:46;7.88;;;5.70;;
46551;SDS011;32278;51.810;4.712;2024-01-06T14:28:12;7.78;;;5.30;;
46551;SDS011;32278;51.810;4.712;2024-01-06T14:30:38;6.13;;;5.40;;